sensor_id;sensor_type;location;lat;lon;timestamp;P1;durP1;ratioP1;P2;durP2;ratioP2
69485;SDS011;56677;51.710;5.366;2024-03-06T05:20:32;5.00;;;3.10;;
69485;SDS011;56677;51.710;5.366;2024-03-06T05:22:57;5.23;;;3.00;;
69485;SDS011;56677;51.710;5.366;2024-03-06T05:25:22;5.20;;;3.00;;
69485;SDS011;56677;51.710;5.366;2024-03-06T05:27:48;4.93;;;2.40;;
69485;SDS011;56677;51.710;5.366;2024-03-06T05:30:13;5.07;;;2.57;;
69485;SDS011;56677;51.710;5.366;2024-03-06T05:32:38;5.50;;;2.93;;
69485;SDS011;56677;51.710;5.366;2024-03-06T05:35:03;5.47;;;2.53;;
69485;SDS011;56677;51.710;5.366;2024-03-06T05:37:28;6.40;;;3.00;;
69485;SDS011;56677;51.710;5.366;2024-03-06T05:39:54;4.37;;;2.67;;
69485;SDS011;56677;51.710;5.366;2024-03-06T05:42:19;4.25;;;2.50;;
69485;SDS011;56677;51.710;5.366;2024-03-06T05:44:44;4.60;;;2.70;;
69485;SDS011;56677;51.710;5.366;2024-03-06T05:47:09;5.38;;;2.80;;
69485;SDS011;56677;51.710;5.366;2024-03-06T05:49:34;6.10;;;2.97;;
69485;SDS011;56677;51.710;5.366;2024-03-06T05:51:59;4.40;;;2.30;;
69485;SDS011;56677;51.710;5.366;2024-03-06T05:54:24;4.03;;;2.15;;
69485;SDS011;56677;51.710;5.366;2024-03-06T05:56:50;5.43;;;2.90;;
69485;SDS011;56677;51.710;5.366;2024-03-06T05:59:15;5.97;;;2.60;;
69485;SDS011;56677;51.710;5.366;2024-03-06T06:01:40;5.97;;;2.67;;
69485;SDS011;56677;51.710;5.366;2024-03-06T06:04:06;5.07;;;2.80;;
69485;SDS011;56677;51.710;5.366;2024-03-06T06:06:31;5.47;;;2.50;;
69485;SDS011;56677;51.710;5.366;2024-03-06T06:08:56;5.20;;;2.63;;
69485;SDS011;56677;51.710;5.366;2024-03-06T06:11:21;5.22;;;2.47;;
69485;SDS011;56677;51.710;5.366;2024-03-06T06:13:46;5.80;;;2.88;;
69485;SDS011;56677;51.710;5.366;2024-03-06T06:16:11;4.93;;;2.58;;
69485;SDS011;56677;51.710;5.366;2024-03-06T06:18:36;4.97;;;2.33;;
69485;SDS011;56677;51.710;5.366;2024-03-06T06:21:02;5.80;;;2.63;;
69485;SDS011;56677;51.710;5.366;2024-03-06T06:23:27;4.80;;;2.60;;
69485;SDS011;56677;51.710;5.366;2024-03-06T06:25:52;4.95;;;2.50;;
69485;SDS011;56677;51.710;5.366;2024-03-06T06:28:17;4.33;;;2.43;;
69485;SDS011;56677;51.710;5.366;2024-03-06T06:30:42;5.07;;;2.35;;
69485;SDS011;56677;51.710;5.366;2024-03-06T06:33:07;7.60;;;2.40;;
69485;SDS011;56677;51.710;5.366;2024-03-06T06:35:33;5.63;;;2.63;;
69485;SDS011;56677;51.710;5.366;2024-03-06T06:37:58;5.03;;;2.50;;
69485;SDS011;56677;51.710;5.366;2024-03-06T06:40:23;6.13;;;2.50;;
69485;SDS011;56677;51.710;5.366;2024-03-06T06:42:48;4.25;;;2.40;;
69485;SDS011;56677;51.710;5.366;2024-03-06T06:45:14;4.57;;;2.40;;
69485;SDS011;56677;51.710;5.366;2024-03-06T06:47:39;4.70;;;2.57;;
69485;SDS011;56677;51.710;5.366;2024-03-06T06:50:04;6.30;;;2.53;;
69485;SDS011;56677;51.710;5.366;2024-03-06T06:52:30;7.53;;;3.17;;
69485;SDS011;56677;51.710;5.366;2024-03-06T06:54:55;4.82;;;2.70;;
69485;SDS011;56677;51.710;5.366;2024-03-06T06:57:20;4.63;;;2.50;;
69485;SDS011;56677;51.710;5.366;2024-03-06T06:59:45;4.68;;;2.35;;
69485;SDS011;56677;51.710;5.366;2024-03-06T07:02:10;3.85;;;2.25;;
69485;SDS011;56677;51.710;5.366;2024-03-06T07:04:35;4.95;;;2.60;;
69485;SDS011;56677;51.710;5.366;2024-03-06T07:07:00;9.15;;;2.50;;
69485;SDS011;56677;51.710;5.366;2024-03-06T07:09:25;5.90;;;2.55;;
69485;SDS011;56677;51.710;5.366;2024-03-06T07:11:50;6.57;;;2.43;;
69485;SDS011;56677;51.710;5.366;2024-03-06T07:14:16;7.22;;;2.70;;
69485;SDS011;56677;51.710;5.366;2024-03-06T07:16:41;5.93;;;2.40;;
69485;SDS011;56677;51.710;5.366;2024-03-06T07:19:06;9.48;;;5.35;;
69485;SDS011;56677;51.710;5.366;2024-03-06T07:21:32;6.95;;;3.92;;
69485;SDS011;56677;51.710;5.366;2024-03-06T07:23:57;6.30;;;3.03;;
69485;SDS011;56677;51.710;5.366;2024-03-06T07:26:22;5.78;;;3.60;;
69485;SDS011;56677;51.710;5.366;2024-03-06T07:28:47;8.00;;;3.78;;
69485;SDS011;56677;51.710;5.366;2024-03-06T07:31:12;8.20;;;3.57;;
69485;SDS011;56677;51.710;5.366;2024-03-06T07:33:37;9.30;;;3.38;;
69485;SDS011;56677;51.710;5.366;2024-03-06T07:36:02;7.40;;;3.70;;
69485;SDS011;56677;51.710;5.366;2024-03-06T07:38:27;5.70;;;3.80;;
69485;SDS011;56677;51.710;5.366;2024-03-06T07:40:53;6.72;;;3.80;;
69485;SDS011;56677;51.710;5.366;2024-03-06T07:43:18;7.78;;;3.30;;
69485;SDS011;56677;51.710;5.366;2024-03-06T07:45:43;5.05;;;3.40;;
69485;SDS011;56677;51.710;5.366;2024-03-06T07:48:08;7.97;;;3.17;;
69485;SDS011;56677;51.710;5.366;2024-03-06T07:50:33;8.20;;;2.85;;
69485;SDS011;56677;51.710;5.366;2024-03-06T07:52:58;10.25;;;3.47;;
69485;SDS011;56677;51.710;5.366;2024-03-06T07:55:23;5.43;;;2.90;;
69485;SDS011;56677;51.710;5.366;2024-03-06T07:57:48;6.20;;;2.90;;
69485;SDS011;56677;51.710;5.366;2024-03-06T08:00:14;6.28;;;2.70;;
69485;SDS011;56677;51.710;5.366;2024-03-06T08:02:39;5.67;;;2.93;;
69485;SDS011;56677;51.710;5.366;2024-03-06T08:05:04;5.53;;;2.93;;
69485;SDS011;56677;51.710;5.366;2024-03-06T08:07:29;9.07;;;3.23;;
69485;SDS011;56677;51.710;5.366;2024-03-06T08:09:54;4.85;;;2.85;;
69485;SDS011;56677;51.710;5.366;2024-03-06T08:12:19;5.07;;;2.40;;
69485;SDS011;56677;51.710;5.366;2024-03-06T08:14:44;5.55;;;2.50;;
69485;SDS011;56677;51.710;5.366;2024-03-06T08:17:10;5.90;;;2.83;;
69485;SDS011;56677;51.710;5.366;2024-03-06T08:19:35;4.30;;;2.33;;
69485;SDS011;56677;51.710;5.366;2024-03-06T08:22:00;6.22;;;2.60;;
69485;SDS011;56677;51.710;5.366;2024-03-06T08:24:25;5.68;;;2.63;;
69485;SDS011;56677;51.710;5.366;2024-03-06T08:26:50;4.82;;;2.58;;
69485;SDS011;56677;51.710;5.366;2024-03-06T08:29:15;5.88;;;2.80;;
69485;SDS011;56677;51.710;5.366;2024-03-06T08:31:40;5.10;;;3.17;;
69485;SDS011;56677;51.710;5.366;2024-03-06T08:34:05;5.25;;;2.65;;
69485;SDS011;56677;51.710;5.366;2024-03-06T08:36:30;4.87;;;2.83;;
69485;SDS011;56677;51.710;5.366;2024-03-06T08:38:56;4.75;;;2.88;;
69485;SDS011;56677;51.710;5.366;2024-03-06T08:41:21;4.68;;;2.40;;
69485;SDS011;56677;51.710;5.366;2024-03-06T08:43:46;5.63;;;2.35;;
69485;SDS011;56677;51.710;5.366;2024-03-06T08:46:11;3.78;;;2.40;;
69485;SDS011;56677;51.710;5.366;2024-03-06T08:48:36;4.83;;;2.90;;
69485;SDS011;56677;51.710;5.366;2024-03-06T08:51:01;5.72;;;2.67;;
69485;SDS011;56677;51.710;5.366;2024-03-06T08:53:26;6.22;;;2.80;;
69485;SDS011;56677;51.710;5.366;2024-03-06T08:55:51;5.28;;;2.78;;
69485;SDS011;56677;51.710;5.366;2024-03-06T08:58:16;5.43;;;2.67;;
69485;SDS011;56677;51.710;5.366;2024-03-06T09:00:42;4.10;;;2.70;;
69485;SDS011;56677;51.710;5.366;2024-03-06T09:03:07;4.47;;;2.77;;
69485;SDS011;56677;51.710;5.366;2024-03-06T09:05:32;4.57;;;2.40;;
69485;SDS011;56677;51.710;5.366;2024-03-06T09:07:57;4.30;;;2.45;;
69485;SDS011;56677;51.710;5.366;2024-03-06T09:10:22;5.45;;;2.53;;
69485;SDS011;56677;51.710;5.366;2024-03-06T09:12:47;4.25;;;2.40;;
69485;SDS011;56677;51.710;5.366;2024-03-06T09:15:13;4.65;;;2.40;;
69485;SDS011;56677;51.710;5.366;2024-03-06T09:17:38;3.95;;;2.55;;
69485;SDS011;56677;51.710;5.366;2024-03-06T09:20:06;4.43;;;2.60;;
69485;SDS011;56677;51.710;5.366;2024-03-06T09:22:31;6.00;;;2.80;;
69485;SDS011;56677;51.710;5.366;2024-03-06T09:24:57;5.93;;;2.67;;
69485;SDS011;56677;51.710;5.366;2024-03-06T09:27:22;5.40;;;2.65;;
69485;SDS011;56677;51.710;5.366;2024-03-06T09:29:47;4.38;;;2.53;;
69485;SDS011;56677;51.710;5.366;2024-03-06T09:32:12;4.75;;;2.50;;
69485;SDS011;56677;51.710;5.366;2024-03-06T09:34:37;3.75;;;2.35;;
69485;SDS011;56677;51.710;5.366;2024-03-06T09:37:02;5.27;;;2.57;;
69485;SDS011;56677;51.710;5.366;2024-03-06T09:39:27;4.73;;;2.50;;
69485;SDS011;56677;51.710;5.366;2024-03-06T09:41:53;6.47;;;3.08;;
69485;SDS011;56677;51.710;5.366;2024-03-06T09:44:18;5.35;;;2.80;;
69485;SDS011;56677;51.710;5.366;2024-03-06T09:46:44;4.67;;;2.87;;
69485;SDS011;56677;51.710;5.366;2024-03-06T09:49:15;5.73;;;2.90;;
69485;SDS011;56677;51.710;5.366;2024-03-06T09:51:44;4.32;;;3.00;;
69485;SDS011;56677;51.710;5.366;2024-03-06T09:54:09;6.18;;;3.15;;
69485;SDS011;56677;51.710;5.366;2024-03-06T09:56:36;6.93;;;3.13;;
69485;SDS011;56677;51.710;5.366;2024-03-06T09:59:01;4.90;;;2.90;;
69485;SDS011;56677;51.710;5.366;2024-03-06T10:01:26;5.72;;;3.22;;
69485;SDS011;56677;51.710;5.366;2024-03-06T10:03:52;5.93;;;2.80;;
69485;SDS011;56677;51.710;5.366;2024-03-06T10:06:17;5.13;;;2.90;;
69485;SDS011;56677;51.710;5.366;2024-03-06T10:08:43;5.38;;;2.70;;
69485;SDS011;56677;51.710;5.366;2024-03-06T10:11:08;4.87;;;2.77;;
69485;SDS011;56677;51.710;5.366;2024-03-06T10:13:33;5.28;;;2.90;;
69485;SDS011;56677;51.710;5.366;2024-03-06T10:16:02;4.68;;;2.70;;
69485;SDS011;56677;51.710;5.366;2024-03-06T10:18:28;4.23;;;2.70;;
69485;SDS011;56677;51.710;5.366;2024-03-06T10:20:53;5.22;;;3.00;;
69485;SDS011;56677;51.710;5.366;2024-03-06T10:23:18;4.40;;;2.80;;
69485;SDS011;56677;51.710;5.366;2024-03-06T10:25:43;4.90;;;3.33;;
69485;SDS011;56677;51.710;5.366;2024-03-06T10:28:09;5.03;;;3.20;;
69485;SDS011;56677;51.710;5.366;2024-03-06T10:30:38;5.32;;;3.22;;
69485;SDS011;56677;51.710;5.366;2024-03-06T10:33:04;4.10;;;2.80;;
69485;SDS011;56677;51.710;5.366;2024-03-06T10:35:29;4.95;;;2.90;;
69485;SDS011;56677;51.710;5.366;2024-03-06T10:37:54;4.43;;;2.70;;
69485;SDS011;56677;51.710;5.366;2024-03-06T10:40:19;4.53;;;3.10;;
69485;SDS011;56677;51.710;5.366;2024-03-06T10:42:45;4.33;;;2.50;;
69485;SDS011;56677;51.710;5.366;2024-03-06T10:45:13;5.07;;;2.65;;
69485;SDS011;56677;51.710;5.366;2024-03-06T10:47:39;4.22;;;2.92;;
69485;SDS011;56677;51.710;5.366;2024-03-06T10:50:05;5.03;;;2.88;;
69485;SDS011;56677;51.710;5.366;2024-03-06T10:52:30;4.93;;;3.10;;
69485;SDS011;56677;51.710;5.366;2024-03-06T10:54:58;4.63;;;3.10;;
69485;SDS011;56677;51.710;5.366;2024-03-06T10:57:23;5.35;;;2.97;;
69485;SDS011;56677;51.710;5.366;2024-03-06T10:59:49;7.67;;;3.40;;
69485;SDS011;56677;51.710;5.366;2024-03-06T11:02:14;5.60;;;3.10;;
69485;SDS011;56677;51.710;5.366;2024-03-06T11:04:40;6.70;;;3.50;;
69485;SDS011;56677;51.710;5.366;2024-03-06T11:07:06;6.00;;;3.30;;
69485;SDS011;56677;51.710;5.366;2024-03-06T11:09:34;7.07;;;2.77;;
69485;SDS011;56677;51.710;5.366;2024-03-06T11:12:00;5.43;;;2.70;;
69485;SDS011;56677;51.710;5.366;2024-03-06T11:14:25;6.03;;;2.90;;
69485;SDS011;56677;51.710;5.366;2024-03-06T11:19:25;5.73;;;2.70;;
69485;SDS011;56677;51.710;5.366;2024-03-06T11:21:50;6.57;;;3.00;;
69485;SDS011;56677;51.710;5.366;2024-03-06T11:24:19;7.80;;;2.73;;
69485;SDS011;56677;51.710;5.366;2024-03-06T11:26:57;5.60;;;2.88;;
69485;SDS011;56677;51.710;5.366;2024-03-06T11:29:27;6.32;;;3.15;;
69485;SDS011;56677;51.710;5.366;2024-03-06T11:34:46;4.63;;;2.85;;
69485;SDS011;56677;51.710;5.366;2024-03-06T11:37:11;6.03;;;2.60;;
69485;SDS011;56677;51.710;5.366;2024-03-06T11:39:37;5.20;;;2.70;;
69485;SDS011;56677;51.710;5.366;2024-03-06T11:42:03;7.45;;;2.65;;
69485;SDS011;56677;51.710;5.366;2024-03-06T11:44:28;6.85;;;3.20;;
69485;SDS011;56677;51.710;5.366;2024-03-06T11:49:26;5.03;;;3.30;;
69485;SDS011;56677;51.710;5.366;2024-03-06T11:51:51;6.27;;;2.97;;
69485;SDS011;56677;51.710;5.366;2024-03-06T11:54:17;5.65;;;3.00;;
69485;SDS011;56677;51.710;5.366;2024-03-06T11:56:44;6.73;;;3.10;;
69485;SDS011;56677;51.710;5.366;2024-03-06T11:59:09;5.32;;;3.03;;
69485;SDS011;56677;51.710;5.366;2024-03-06T12:01:34;3.95;;;2.60;;
69485;SDS011;56677;51.710;5.366;2024-03-06T12:04:00;5.38;;;2.45;;
69485;SDS011;56677;51.710;5.366;2024-03-06T12:06:26;4.53;;;2.77;;
69485;SDS011;56677;51.710;5.366;2024-03-06T12:08:52;5.72;;;2.75;;
69485;SDS011;56677;51.710;5.366;2024-03-06T12:11:18;6.05;;;2.53;;
69485;SDS011;56677;51.710;5.366;2024-03-06T12:13:43;6.00;;;2.55;;
69485;SDS011;56677;51.710;5.366;2024-03-06T12:16:08;5.45;;;2.42;;
69485;SDS011;56677;51.710;5.366;2024-03-06T12:18:33;4.37;;;2.87;;
69485;SDS011;56677;51.710;5.366;2024-03-06T12:21:00;4.30;;;2.87;;
69485;SDS011;56677;51.710;5.366;2024-03-06T12:23:25;6.18;;;2.30;;
69485;SDS011;56677;51.710;5.366;2024-03-06T12:25:50;5.07;;;2.63;;
69485;SDS011;56677;51.710;5.366;2024-03-06T12:28:15;3.93;;;2.60;;
69485;SDS011;56677;51.710;5.366;2024-03-06T12:30:41;5.18;;;2.80;;
69485;SDS011;56677;51.710;5.366;2024-03-06T12:33:06;4.10;;;2.20;;
69485;SDS011;56677;51.710;5.366;2024-03-06T12:35:32;4.72;;;2.60;;
69485;SDS011;56677;51.710;5.366;2024-03-06T12:37:57;4.87;;;2.43;;
69485;SDS011;56677;51.710;5.366;2024-03-06T12:40:23;4.07;;;2.60;;
69485;SDS011;56677;51.710;5.366;2024-03-06T12:42:48;5.83;;;2.77;;
69485;SDS011;56677;51.710;5.366;2024-03-06T12:45:13;4.83;;;1.97;;
69485;SDS011;56677;51.710;5.366;2024-03-06T12:47:42;4.20;;;2.53;;
69485;SDS011;56677;51.710;5.366;2024-03-06T12:50:07;4.38;;;2.38;;
69485;SDS011;56677;51.710;5.366;2024-03-06T12:52:32;4.17;;;2.53;;
69485;SDS011;56677;51.710;5.366;2024-03-06T12:54:57;3.95;;;2.50;;
69485;SDS011;56677;51.710;5.366;2024-03-06T12:57:22;4.88;;;2.58;;
69485;SDS011;56677;51.710;5.366;2024-03-06T12:59:47;3.55;;;2.40;;
69485;SDS011;56677;51.710;5.366;2024-03-06T13:02:13;3.70;;;2.60;;
69485;SDS011;56677;51.710;5.366;2024-03-06T13:04:38;3.17;;;1.83;;
69485;SDS011;56677;51.710;5.366;2024-03-06T13:07:03;4.40;;;2.28;;
69485;SDS011;56677;51.710;5.366;2024-03-06T13:09:28;4.17;;;2.33;;
69485;SDS011;56677;51.710;5.366;2024-03-06T13:11:53;4.13;;;2.22;;
69485;SDS011;56677;51.710;5.366;2024-03-06T13:14:18;5.13;;;2.35;;
69485;SDS011;56677;51.710;5.366;2024-03-06T13:16:43;3.88;;;2.53;;
69485;SDS011;56677;51.710;5.366;2024-03-06T13:19:08;4.63;;;2.60;;
69485;SDS011;56677;51.710;5.366;2024-03-06T13:21:34;3.05;;;2.05;;
69485;SDS011;56677;51.710;5.366;2024-03-06T13:23:59;4.30;;;2.42;;
69485;SDS011;56677;51.710;5.366;2024-03-06T13:26:24;3.78;;;2.25;;
69485;SDS011;56677;51.710;5.366;2024-03-06T13:28:49;4.70;;;2.40;;
69485;SDS011;56677;51.710;5.366;2024-03-06T13:31:14;3.35;;;2.08;;
69485;SDS011;56677;51.710;5.366;2024-03-06T13:33:39;4.45;;;2.40;;
69485;SDS011;56677;51.710;5.366;2024-03-06T13:36:04;6.13;;;2.45;;
69485;SDS011;56677;51.710;5.366;2024-03-06T13:38:29;3.87;;;2.30;;
69485;SDS011;56677;51.710;5.366;2024-03-06T13:40:55;4.68;;;2.28;;
69485;SDS011;56677;51.710;5.366;2024-03-06T13:43:20;4.20;;;2.22;;
69485;SDS011;56677;51.710;5.366;2024-03-06T13:45:48;3.43;;;2.30;;
69485;SDS011;56677;51.710;5.366;2024-03-06T13:48:14;4.38;;;2.35;;
69485;SDS011;56677;51.710;5.366;2024-03-06T13:50:39;5.70;;;2.57;;
69485;SDS011;56677;51.710;5.366;2024-03-06T13:53:04;3.53;;;2.13;;
69485;SDS011;56677;51.710;5.366;2024-03-06T13:55:29;4.10;;;2.30;;
69485;SDS011;56677;51.710;5.366;2024-03-06T13:57:54;5.25;;;2.10;;
69485;SDS011;56677;51.710;5.366;2024-03-06T14:00:19;4.55;;;2.83;;
69485;SDS011;56677;51.710;5.366;2024-03-06T14:02:45;4.13;;;2.50;;
69485;SDS011;56677;51.710;5.366;2024-03-06T14:05:10;5.25;;;2.60;;
69485;SDS011;56677;51.710;5.366;2024-03-06T14:07:35;4.47;;;2.43;;
69485;SDS011;56677;51.710;5.366;2024-03-06T14:10:00;4.60;;;2.57;;
69485;SDS011;56677;51.710;5.366;2024-03-06T14:12:25;3.93;;;1.90;;
69485;SDS011;56677;51.710;5.366;2024-03-06T14:14:50;5.43;;;2.07;;
69485;SDS011;56677;51.710;5.366;2024-03-06T14:17:16;4.22;;;2.40;;
69485;SDS011;56677;51.710;5.366;2024-03-06T14:19:41;4.68;;;2.20;;
69485;SDS011;56677;51.710;5.366;2024-03-06T14:22:06;4.43;;;2.20;;
69485;SDS011;56677;51.710;5.366;2024-03-06T14:24:32;4.05;;;2.40;;
69485;SDS011;56677;51.710;5.366;2024-03-06T14:26:57;3.83;;;2.30;;
69485;SDS011;56677;51.710;5.366;2024-03-06T14:29:22;3.50;;;2.30;;
69485;SDS011;56677;51.710;5.366;2024-03-06T14:31:47;5.40;;;2.63;;
69485;SDS011;56677;51.710;5.366;2024-03-06T14:34:12;4.35;;;2.40;;
69485;SDS011;56677;51.710;5.366;2024-03-06T14:36:38;3.85;;;2.20;;
69485;SDS011;56677;51.710;5.366;2024-03-06T14:39:03;4.07;;;2.60;;
69485;SDS011;56677;51.710;5.366;2024-03-06T14:41:28;4.40;;;2.40;;
69485;SDS011;56677;51.710;5.366;2024-03-06T14:43:54;5.05;;;2.60;;
69485;SDS011;56677;51.710;5.366;2024-03-06T14:46:19;4.47;;;2.60;;
69485;SDS011;56677;51.710;5.366;2024-03-06T14:48:44;3.50;;;2.10;;
69485;SDS011;56677;51.710;5.366;2024-03-06T14:51:09;4.00;;;2.25;;
69485;SDS011;56677;51.710;5.366;2024-03-06T14:53:34;5.20;;;2.20;;
69485;SDS011;56677;51.710;5.366;2024-03-06T14:55:59;4.57;;;2.65;;
69485;SDS011;56677;51.710;5.366;2024-03-06T14:58:25;3.83;;;2.13;;
69485;SDS011;56677;51.710;5.366;2024-03-06T15:00:50;5.20;;;2.40;;
69485;SDS011;56677;51.710;5.366;2024-03-06T15:03:15;4.30;;;2.30;;
69485;SDS011;56677;51.710;5.366;2024-03-06T15:05:40;4.82;;;2.30;;
69485;SDS011;56677;51.710;5.366;2024-03-06T15:08:05;3.73;;;2.17;;
69485;SDS011;56677;51.710;5.366;2024-03-06T15:10:31;4.70;;;2.70;;
69485;SDS011;56677;51.710;5.366;2024-03-06T15:12:56;4.23;;;2.30;;
69485;SDS011;56677;51.710;5.366;2024-03-06T15:15:21;3.88;;;2.45;;
69485;SDS011;56677;51.710;5.366;2024-03-06T15:17:46;3.92;;;2.08;;
69485;SDS011;56677;51.710;5.366;2024-03-06T15:20:11;3.75;;;2.25;;
69485;SDS011;56677;51.710;5.366;2024-03-06T15:22:37;4.20;;;2.53;;
69485;SDS011;56677;51.710;5.366;2024-03-06T15:25:02;5.70;;;2.27;;
69485;SDS011;56677;51.710;5.366;2024-03-06T15:30:11;4.18;;;2.35;;
69485;SDS011;56677;51.710;5.366;2024-03-06T15:32:37;5.27;;;2.37;;
69485;SDS011;56677;51.710;5.366;2024-03-06T15:35:03;3.72;;;2.40;;
69485;SDS011;56677;51.710;5.366;2024-03-06T15:37:29;3.80;;;2.50;;
69485;SDS011;56677;51.710;5.366;2024-03-06T15:39:54;3.33;;;2.15;;
69485;SDS011;56677;51.710;5.366;2024-03-06T15:42:23;3.57;;;1.87;;
69485;SDS011;56677;51.710;5.366;2024-03-06T15:44:48;4.00;;;2.38;;
69485;SDS011;56677;51.710;5.366;2024-03-06T15:47:14;4.77;;;2.50;;
69485;SDS011;56677;51.710;5.366;2024-03-06T15:49:39;3.27;;;2.10;;
69485;SDS011;56677;51.710;5.366;2024-03-06T15:52:04;3.90;;;2.25;;
69485;SDS011;56677;51.710;5.366;2024-03-06T15:54:29;3.47;;;2.10;;
69485;SDS011;56677;51.710;5.366;2024-03-06T15:56:54;3.45;;;2.33;;
69485;SDS011;56677;51.710;5.366;2024-03-06T15:59:19;3.95;;;2.15;;
69485;SDS011;56677;51.710;5.366;2024-03-06T16:01:45;3.63;;;2.20;;
69485;SDS011;56677;51.710;5.366;2024-03-06T16:04:10;3.67;;;2.27;;
69485;SDS011;56677;51.710;5.366;2024-03-06T16:06:35;3.07;;;2.00;;
69485;SDS011;56677;51.710;5.366;2024-03-06T16:09:00;3.50;;;1.88;;
69485;SDS011;56677;51.710;5.366;2024-03-06T16:11:25;5.07;;;2.25;;
69485;SDS011;56677;51.710;5.366;2024-03-06T16:13:51;3.50;;;2.27;;
69485;SDS011;56677;51.710;5.366;2024-03-06T16:16:16;4.97;;;2.43;;
69485;SDS011;56677;51.710;5.366;2024-03-06T16:18:41;4.10;;;2.58;;
69485;SDS011;56677;51.710;5.366;2024-03-06T16:21:06;3.63;;;2.60;;
69485;SDS011;56677;51.710;5.366;2024-03-06T16:23:31;3.42;;;2.03;;
69485;SDS011;56677;51.710;5.366;2024-03-06T16:25:56;7.47;;;2.10;;
69485;SDS011;56677;51.710;5.366;2024-03-06T16:28:21;3.95;;;2.35;;
69485;SDS011;56677;51.710;5.366;2024-03-06T16:30:46;2.70;;;1.77;;
69485;SDS011;56677;51.710;5.366;2024-03-06T16:33:12;3.25;;;1.98;;
69485;SDS011;56677;51.710;5.366;2024-03-06T16:35:37;4.00;;;2.10;;
69485;SDS011;56677;51.710;5.366;2024-03-06T16:38:02;3.35;;;2.10;;
69485;SDS011;56677;51.710;5.366;2024-03-06T16:40:27;4.23;;;2.20;;
69485;SDS011;56677;51.710;5.366;2024-03-06T16:42:52;3.60;;;2.45;;
69485;SDS011;56677;51.710;5.366;2024-03-06T16:45:17;4.15;;;2.60;;
69485;SDS011;56677;51.710;5.366;2024-03-06T16:47:42;3.30;;;1.90;;
69485;SDS011;56677;51.710;5.366;2024-03-06T16:50:08;4.77;;;2.97;;
69485;SDS011;56677;51.710;5.366;2024-03-06T16:52:33;9.68;;;3.63;;
69485;SDS011;56677;51.710;5.366;2024-03-06T16:54:58;8.63;;;2.88;;
69485;SDS011;56677;51.710;5.366;2024-03-06T16:57:23;5.10;;;2.72;;
69485;SDS011;56677;51.710;5.366;2024-03-06T16:59:48;5.47;;;2.60;;
69485;SDS011;56677;51.710;5.366;2024-03-06T17:02:13;4.95;;;2.63;;
69485;SDS011;56677;51.710;5.366;2024-03-06T17:04:39;4.47;;;2.47;;
69485;SDS011;56677;51.710;5.366;2024-03-06T17:07:04;5.07;;;2.72;;
69485;SDS011;56677;51.710;5.366;2024-03-06T17:09:29;5.72;;;2.20;;
69485;SDS011;56677;51.710;5.366;2024-03-06T17:11:55;4.43;;;2.55;;
69485;SDS011;56677;51.710;5.366;2024-03-06T17:14:20;4.45;;;2.40;;
69485;SDS011;56677;51.710;5.366;2024-03-06T17:16:45;4.10;;;2.45;;
69485;SDS011;56677;51.710;5.366;2024-03-06T17:19:10;5.72;;;2.30;;
69485;SDS011;56677;51.710;5.366;2024-03-06T17:21:35;4.90;;;2.35;;
69485;SDS011;56677;51.710;5.366;2024-03-06T17:24:01;5.33;;;2.27;;
69485;SDS011;56677;51.710;5.366;2024-03-06T17:26:26;3.85;;;2.20;;
69485;SDS011;56677;51.710;5.366;2024-03-06T17:28:51;5.23;;;2.13;;
69485;SDS011;56677;51.710;5.366;2024-03-06T17:31:16;4.97;;;2.45;;
69485;SDS011;56677;51.710;5.366;2024-03-06T17:33:41;6.07;;;2.50;;
69485;SDS011;56677;51.710;5.366;2024-03-06T17:36:06;5.30;;;2.20;;
69485;SDS011;56677;51.710;5.366;2024-03-06T17:38:31;4.82;;;2.30;;
69485;SDS011;56677;51.710;5.366;2024-03-06T17:40:56;5.63;;;2.05;;
69485;SDS011;56677;51.710;5.366;2024-03-06T17:43:21;4.95;;;2.30;;
69485;SDS011;56677;51.710;5.366;2024-03-06T17:45:47;3.45;;;2.17;;
69485;SDS011;56677;51.710;5.366;2024-03-06T17:48:12;6.05;;;2.20;;
69485;SDS011;56677;51.710;5.366;2024-03-06T17:50:37;5.53;;;2.45;;
69485;SDS011;56677;51.710;5.366;2024-03-06T17:53:03;4.87;;;1.97;;
69485;SDS011;56677;51.710;5.366;2024-03-06T17:55:28;5.93;;;2.20;;
69485;SDS011;56677;51.710;5.366;2024-03-06T17:57:53;3.97;;;2.17;;
69485;SDS011;56677;51.710;5.366;2024-03-06T18:00:18;4.03;;;1.90;;
69485;SDS011;56677;51.710;5.366;2024-03-06T18:02:43;4.37;;;2.13;;
69485;SDS011;56677;51.710;5.366;2024-03-06T18:05:09;3.73;;;2.10;;
69485;SDS011;56677;51.710;5.366;2024-03-06T18:07:34;4.70;;;1.93;;
69485;SDS011;56677;51.710;5.366;2024-03-06T18:09:59;3.67;;;1.90;;
69485;SDS011;56677;51.710;5.366;2024-03-06T18:12:24;4.13;;;2.00;;
69485;SDS011;56677;51.710;5.366;2024-03-06T18:14:49;3.87;;;1.90;;
69485;SDS011;56677;51.710;5.366;2024-03-06T18:17:15;3.78;;;2.10;;
69485;SDS011;56677;51.710;5.366;2024-03-06T18:19:40;5.13;;;2.15;;
69485;SDS011;56677;51.710;5.366;2024-03-06T18:22:05;6.15;;;2.70;;
69485;SDS011;56677;51.710;5.366;2024-03-06T18:24:30;3.93;;;2.40;;
69485;SDS011;56677;51.710;5.366;2024-03-06T18:26:55;4.00;;;1.90;;
69485;SDS011;56677;51.710;5.366;2024-03-06T18:29:20;6.35;;;2.50;;
69485;SDS011;56677;51.710;5.366;2024-03-06T18:31:45;6.40;;;2.30;;
69485;SDS011;56677;51.710;5.366;2024-03-06T18:34:10;5.47;;;2.75;;
69485;SDS011;56677;51.710;5.366;2024-03-06T18:36:36;3.53;;;1.88;;
69485;SDS011;56677;51.710;5.366;2024-03-06T18:39:01;6.43;;;2.50;;
69485;SDS011;56677;51.710;5.366;2024-03-06T18:41:26;4.95;;;2.20;;
69485;SDS011;56677;51.710;5.366;2024-03-06T18:43:51;4.57;;;2.17;;
69485;SDS011;56677;51.710;5.366;2024-03-06T18:46:16;5.55;;;2.47;;
69485;SDS011;56677;51.710;5.366;2024-03-06T18:48:41;3.75;;;1.90;;
69485;SDS011;56677;51.710;5.366;2024-03-06T18:51:06;3.75;;;2.03;;
69485;SDS011;56677;51.710;5.366;2024-03-06T18:53:31;5.05;;;2.40;;
69485;SDS011;56677;51.710;5.366;2024-03-06T18:55:56;4.13;;;2.22;;
69485;SDS011;56677;51.710;5.366;2024-03-06T18:58:22;3.97;;;2.10;;
69485;SDS011;56677;51.710;5.366;2024-03-06T19:00:47;3.90;;;1.90;;
69485;SDS011;56677;51.710;5.366;2024-03-06T19:03:12;6.13;;;2.17;;
69485;SDS011;56677;51.710;5.366;2024-03-06T19:05:37;4.73;;;2.20;;
69485;SDS011;56677;51.710;5.366;2024-03-06T19:08:02;4.07;;;2.25;;
69485;SDS011;56677;51.710;5.366;2024-03-06T19:10:27;3.40;;;1.83;;
69485;SDS011;56677;51.710;5.366;2024-03-06T19:12:53;4.45;;;2.00;;
69485;SDS011;56677;51.710;5.366;2024-03-06T19:15:18;3.13;;;1.80;;
69485;SDS011;56677;51.710;5.366;2024-03-06T19:17:43;3.97;;;2.13;;
69485;SDS011;56677;51.710;5.366;2024-03-06T19:20:08;4.28;;;2.20;;
69485;SDS011;56677;51.710;5.366;2024-03-06T19:22:33;4.30;;;1.90;;
69485;SDS011;56677;51.710;5.366;2024-03-06T19:24:58;3.72;;;2.10;;
69485;SDS011;56677;51.710;5.366;2024-03-06T19:27:24;5.28;;;2.25;;
69485;SDS011;56677;51.710;5.366;2024-03-06T19:29:49;4.68;;;2.35;;
69485;SDS011;56677;51.710;5.366;2024-03-06T19:32:14;4.07;;;2.05;;
69485;SDS011;56677;51.710;5.366;2024-03-06T19:34:39;3.63;;;1.90;;
69485;SDS011;56677;51.710;5.366;2024-03-06T19:37:04;4.32;;;2.35;;
69485;SDS011;56677;51.710;5.366;2024-03-06T19:39:29;3.83;;;1.80;;
69485;SDS011;56677;51.710;5.366;2024-03-06T19:41:54;3.00;;;1.63;;
69485;SDS011;56677;51.710;5.366;2024-03-06T19:44:19;4.78;;;2.33;;
69485;SDS011;56677;51.710;5.366;2024-03-06T19:46:45;3.65;;;1.95;;
69485;SDS011;56677;51.710;5.366;2024-03-06T19:49:10;2.93;;;1.60;;
69485;SDS011;56677;51.710;5.366;2024-03-06T19:51:35;3.97;;;2.13;;
69485;SDS011;56677;51.710;5.366;2024-03-06T19:54:00;3.20;;;1.80;;
69485;SDS011;56677;51.710;5.366;2024-03-06T19:56:25;3.28;;;1.77;;
69485;SDS011;56677;51.710;5.366;2024-03-06T19:58:50;3.83;;;2.00;;
69485;SDS011;56677;51.710;5.366;2024-03-06T20:01:16;4.33;;;1.90;;
69485;SDS011;56677;51.710;5.366;2024-03-06T20:03:41;3.97;;;2.20;;
69485;SDS011;56677;51.710;5.366;2024-03-06T20:06:06;3.37;;;2.10;;